Time,TemperatureF,DewpointF,PressureIn,WindDirection,WindDirectionDegrees,WindSpeedMPH,WindSpeedGustMPH,Humidity,HourlyPrecipIn,Conditions,Clouds,dailyrainin,SoftwareType,DateUTC
2013-04-27 07:52:00,51.7,31.6,29.89,WNW,292,0.0,6.0,46,0.00,,---,0.00,VWS V14.00,2013-04-27 12:52:00,
2013-04-27 07:57:00,52.5,33.4,29.91,WNW,284,0.0,0.0,48,0.00,,---,0.00,VWS V14.00,2013-04-27 12:57:00,
2013-04-27 08:02:00,52.9,33.2,29.91,West,281,0.0,0.0,47,0.00,,---,0.00,VWS V14.00,2013-04-27 13:02:00,
2013-04-27 08:07:00,53.5,33.8,29.91,West,281,0.0,0.0,47,0.00,,---,0.00,VWS V14.00,2013-04-27 13:07:00,
2013-04-27 08:12:00,53.9,33.6,29.91,West,281,0.0,0.0,46,0.00,,---,0.00,VWS V14.00,2013-04-27 13:12:00,
2013-04-27 08:13:00,53.9,33.6,29.91,West,281,0.0,0.0,46,0.00,,---,0.00,VWS V14.00,2013-04-27 13:13:00,
2013-04-27 08:17:00,54.5,33.6,29.95,West,281,0.0,0.0,45,0.00,,---,0.00,VWS V14.00,2013-04-27 13:17:00,
2013-04-27 08:18:00,54.5,33.6,29.95,West,281,0.0,0.0,45,0.00,,---,0.00,VWS V14.00,2013-04-27 13:18:00,
2013-04-27 08:22:00,55.1,34.2,29.95,West,281,0.0,0.0,45,0.00,,---,0.00,VWS V14.00,2013-04-27 13:22:00,
2013-04-27 08:23:00,55.1,34.2,29.95,West,281,0.0,0.0,45,0.00,,---,0.00,VWS V14.00,2013-04-27 13:23:00,
2013-04-27 08:27:00,55.7,34.1,29.95,West,281,0.0,0.0,44,0.00,,---,0.00,VWS V14.00,2013-04-27 13:27:00,
2013-04-27 08:28:00,55.7,34.1,29.95,WNW,285,0.0,0.0,44,0.00,,---,0.00,VWS V14.00,2013-04-27 13:28:00,
2013-04-27 08:32:00,56.2,34.6,29.95,WNW,291,0.0,0.0,44,0.00,,---,0.00,VWS V14.00,2013-04-27 13:32:00,
2013-04-27 08:33:00,56.2,35.2,29.95,WNW,291,0.0,0.0,45,0.00,,---,0.00,VWS V14.00,2013-04-27 13:33:00,
2013-04-27 08:37:00,56.5,34.9,29.95,WNW,292,0.0,0.0,44,0.00,,---,0.00,VWS V14.00,2013-04-27 13:37:00,
2013-04-27 08:38:00,56.6,35.5,29.95,WNW,292,0.0,0.0,45,0.00,,---,0.00,VWS V14.00,2013-04-27 13:38:00,
2013-04-27 08:42:00,57.0,35.3,29.95,West,281,0.0,7.0,44,0.00,,---,0.00,VWS V14.00,2013-04-27 13:42:00,
2013-04-27 08:43:00,57.2,34.9,29.95,West,281,0.0,7.0,43,0.00,,---,0.00,VWS V14.00,2013-04-27 13:43:00,
2013-04-27 08:44:00,57.2,34.3,29.94,WNW,282,0.0,7.0,42,0.00,,---,0.00,VWS V14.00,2013-04-27 13:44:00,
2013-04-27 08:48:00,57.6,35.3,29.94,WNW,284,0.0,7.0,43,0.00,,---,0.00,VWS V14.00,2013-04-27 13:48:00,
2013-04-27 08:49:00,57.8,35.5,29.94,WNW,284,0.0,7.0,43,0.00,,---,0.00,VWS V14.00,2013-04-27 13:49:00,
2013-04-27 08:53:00,58.1,35.7,29.94,WNW,284,0.0,7.0,43,0.00,,---,0.00,VWS V14.00,2013-04-27 13:53:00,
2013-04-27 08:54:00,58.3,35.9,29.94,WNW,284,0.0,7.0,43,0.00,,---,0.00,VWS V14.00,2013-04-27 13:54:00,
2013-04-27 08:58:00,58.6,36.8,29.92,WNW,284,0.0,7.0,44,0.00,,---,0.00,VWS V14.00,2013-04-27 13:58:00,
2013-04-27 08:59:00,58.6,36.8,29.92,WNW,284,0.0,7.0,44,0.00,,---,0.00,VWS V14.00,2013-04-27 13:59:00,
2013-04-27 09:00:00,58.7,36.9,29.92,WNW,284,0.0,0.0,44,0.00,,---,0.00,VWS V14.00,2013-04-27 14:00:00,
2013-04-27 09:03:00,59.0,37.1,29.92,WNW,284,0.0,0.0,44,0.00,,---,0.00,VWS V14.00,2013-04-27 14:03:00,
2013-04-27 09:04:00,59.0,37.1,29.92,WNW,284,0.0,0.0,44,0.00,,---,0.00,VWS V14.00,2013-04-27 14:04:00,
2013-04-27 09:05:00,59.0,37.1,29.92,WNW,284,0.0,0.0,44,0.00,,---,0.00,VWS V14.00,2013-04-27 14:05:00,
2013-04-27 09:08:00,59.5,37.0,29.92,WNW,284,0.0,0.0,43,0.00,,---,0.00,VWS V14.00,2013-04-27 14:08:00,
2013-04-27 09:09:00,59.5,37.0,29.92,WNW,284,0.0,0.0,43,0.00,,---,0.00,VWS V14.00,2013-04-27 14:09:00,
2013-04-27 09:10:00,59.6,37.1,29.92,WNW,284,0.0,0.0,43,0.00,,---,0.00,VWS V14.00,2013-04-27 14:10:00,
2013-04-27 09:13:00,60.1,37.0,29.95,WNW,284,0.0,0.0,42,0.00,,---,0.00,VWS V14.00,2013-04-27 14:13:00,
2013-04-27 09:14:00,60.1,37.0,29.95,WNW,284,0.0,0.0,42,0.00,,---,0.00,VWS V14.00,2013-04-27 14:14:00,
2013-04-27 09:15:00,60.2,37.0,29.95,WNW,284,0.0,0.0,42,0.00,,---,0.00,VWS V14.00,2013-04-27 14:15:00,
2013-04-27 09:18:00,60.7,37.5,29.95,WNW,284,0.0,0.0,42,0.00,,---,0.00,VWS V14.00,2013-04-27 14:18:00,
2013-04-27 09:19:00,60.7,37.5,29.95,WNW,284,0.0,0.0,42,0.00,,---,0.00,VWS V14.00,2013-04-27 14:19:00,
2013-04-27 09:20:00,60.7,37.5,29.95,WNW,284,0.0,0.0,42,0.00,,---,0.00,VWS V14.00,2013-04-27 14:20:00,
2013-04-27 09:24:00,61.3,37.4,29.95,WNW,284,0.0,0.0,41,0.00,,---,0.00,VWS V14.00,2013-04-27 14:24:00,
2013-04-27 09:25:00,61.5,37.6,29.95,WNW,284,0.0,0.0,41,0.00,,---,0.00,VWS V14.00,2013-04-27 14:25:00,
2013-04-27 09:29:00,62.0,37.4,29.94,WNW,285,0.0,0.0,40,0.00,,---,0.00,VWS V14.00,2013-04-27 14:29:00,
2013-04-27 09:30:00,62.1,36.9,29.94,WNW,285,0.0,0.0,39,0.00,,---,0.00,VWS V14.00,2013-04-27 14:30:00,
2013-04-27 09:34:00,62.9,36.9,29.94,WNW,285,0.0,0.0,38,0.00,,---,0.00,VWS V14.00,2013-04-27 14:34:00,
2013-04-27 09:35:00,62.9,36.9,29.94,WNW,285,0.0,0.0,38,0.00,,---,0.00,VWS V14.00,2013-04-27 14:35:00,
2013-04-27 09:39:00,63.5,36.1,29.94,WNW,285,0.0,0.0,36,0.00,,---,0.00,VWS V14.00,2013-04-27 14:39:00,
2013-04-27 09:40:00,63.7,36.3,29.94,WNW,285,0.0,0.0,36,0.00,,---,0.00,VWS V14.00,2013-04-27 14:40:00,
2013-04-27 09:44:00,64.2,36.7,29.93,WNW,285,0.0,0.0,36,0.00,,---,0.00,VWS V14.00,2013-04-27 14:44:00,
2013-04-27 09:45:00,64.3,36.1,29.93,WNW,285,0.0,0.0,35,0.00,,---,0.00,VWS V14.00,2013-04-27 14:45:00,
2013-04-27 09:49:00,65.3,36.2,29.93,WNW,287,0.0,0.0,34,0.00,,---,0.00,VWS V14.00,2013-04-27 14:49:00,
2013-04-27 09:50:00,65.5,36.4,29.93,WNW,287,0.0,0.0,34,0.00,,---,0.00,VWS V14.00,2013-04-27 14:50:00,
2013-04-27 09:51:00,65.3,36.2,29.93,WNW,287,0.0,0.0,34,0.00,,---,0.00,VWS V14.00,2013-04-27 14:51:00,
2013-04-27 09:55:00,65.0,36.0,29.93,WNW,287,0.0,0.0,34,0.00,,---,0.00,VWS V14.00,2013-04-27 14:55:00,
2013-04-27 09:56:00,65.2,36.2,29.93,WNW,287,0.0,0.0,34,0.00,,---,0.00,VWS V14.00,2013-04-27 14:56:00,
2013-04-27 10:00:00,65.6,35.8,29.91,WNW,287,0.0,0.0,33,0.00,,---,0.00,VWS V14.00,2013-04-27 15:00:00,
2013-04-27 10:01:00,66.0,36.1,29.91,WNW,287,0.0,0.0,33,0.00,,---,0.00,VWS V14.00,2013-04-27 15:01:00,
2013-04-27 10:05:00,66.3,35.6,29.91,WNW,287,0.0,0.0,32,0.00,,---,0.00,VWS V14.00,2013-04-27 15:05:00,
2013-04-27 10:06:00,66.4,35.7,29.91,WNW,287,0.0,0.0,32,0.00,,---,0.00,VWS V14.00,2013-04-27 15:06:00,
2013-04-27 10:10:00,67.3,34.0,29.91,WNW,289,0.0,0.0,29,0.00,,---,0.00,VWS V14.00,2013-04-27 15:10:00,
2013-04-27 10:11:00,67.4,34.1,29.91,WNW,291,0.0,0.0,29,0.00,,---,0.00,VWS V14.00,2013-04-27 15:11:00,
2013-04-27 10:15:00,66.6,34.2,29.92,NE,37,0.0,7.0,30,0.00,,---,0.00,VWS V14.00,2013-04-27 15:15:00,
2013-04-27 10:16:00,66.6,34.2,29.92,NE,37,0.0,7.0,30,0.00,,---,0.00,VWS V14.00,2013-04-27 15:16:00,
2013-04-27 10:21:00,66.9,34.5,29.92,NE,37,0.0,7.0,30,0.00,,---,0.00,VWS V14.00,2013-04-27 15:21:00,
2013-04-27 10:22:00,67.3,34.8,29.92,NE,37,0.0,7.0,30,0.00,,---,0.00,VWS V14.00,2013-04-27 15:22:00,
2013-04-27 10:26:00,68.3,34.8,29.92,NE,37,0.0,7.0,29,0.00,,---,0.00,VWS V14.00,2013-04-27 15:26:00,
2013-04-27 10:27:00,68.3,34.0,29.92,NE,37,0.0,7.0,28,0.00,,---,0.00,VWS V14.00,2013-04-27 15:27:00,
2013-04-27 10:31:00,68.8,33.5,29.91,NE,38,2.0,2.0,27,0.00,,---,0.00,VWS V14.00,2013-04-27 15:31:00,
2013-04-27 10:32:00,68.6,33.3,29.91,NE,40,0.0,5.0,27,0.00,,---,0.00,VWS V14.00,2013-04-27 15:32:00,
2013-04-27 10:36:00,68.6,34.2,29.91,NE,44,2.0,6.0,28,0.00,,---,0.00,VWS V14.00,2013-04-27 15:36:00,
2013-04-27 10:37:00,68.8,34.4,29.91,NE,44,0.0,6.0,28,0.00,,---,0.00,VWS V14.00,2013-04-27 15:37:00,
2013-04-27 10:41:00,69.1,34.7,29.91,NE,54,0.0,6.0,28,0.00,,---,0.00,VWS V14.00,2013-04-27 15:41:00,
2013-04-27 10:42:00,69.3,34.8,29.91,NE,54,7.0,7.0,28,0.00,,---,0.00,VWS V14.00,2013-04-27 15:42:00,
2013-04-27 10:46:00,69.1,33.7,29.91,NE,52,0.0,7.0,27,0.00,,---,0.00,VWS V14.00,2013-04-27 15:46:00,
2013-04-27 10:47:00,68.9,33.6,29.91,NE,52,0.0,7.0,27,0.00,,---,0.00,VWS V14.00,2013-04-27 15:47:00,
2013-04-27 10:51:00,69.3,33.9,29.91,ENE,61,0.0,8.0,27,0.00,,---,0.00,VWS V14.00,2013-04-27 15:51:00,
2013-04-27 10:52:00,69.6,34.2,29.91,ENE,61,0.0,8.0,27,0.00,,---,0.00,VWS V14.00,2013-04-27 15:52:00,
2013-04-27 10:56:00,70.1,32.7,29.91,ENE,61,0.0,8.0,25,0.00,,---,0.00,VWS V14.00,2013-04-27 15:56:00,
2013-04-27 10:57:00,69.9,32.5,29.91,ENE,61,1.0,8.0,25,0.00,,---,0.00,VWS V14.00,2013-04-27 15:57:00,
2013-04-27 11:02:00,70.6,34.1,29.90,NE,51,0.0,7.0,26,0.00,,---,0.00,VWS V14.00,2013-04-27 16:02:00,
2013-04-27 11:07:00,70.6,33.1,29.90,NE,34,2.0,8.0,25,0.00,,---,0.00,VWS V14.00,2013-04-27 16:07:00,
2013-04-27 11:08:00,70.4,33.9,29.90,NE,38,0.0,10.0,26,0.00,,---,0.00,VWS V14.00,2013-04-27 16:08:00,
2013-04-27 11:12:00,69.9,33.5,29.90,NE,45,0.0,10.0,26,0.00,,---,0.00,VWS V14.00,2013-04-27 16:12:00,
2013-04-27 11:13:00,69.9,33.5,29.90,NE,52,5.0,10.0,26,0.00,,---,0.00,VWS V14.00,2013-04-27 16:13:00,
2013-04-27 11:17:00,70.6,34.1,29.92,NE,52,1.0,10.0,26,0.00,,---,0.00,VWS V14.00,2013-04-27 16:17:00,
2013-04-27 11:18:00,70.4,33.9,29.92,NE,56,3.0,10.0,26,0.00,,---,0.00,VWS V14.00,2013-04-27 16:18:00,
2013-04-27 11:22:00,70.4,33.9,29.92,ENE,58,0.0,10.0,26,0.00,,---,0.00,VWS V14.00,2013-04-27 16:22:00,
2013-04-27 11:23:00,70.4,32.9,29.92,ENE,58,1.0,10.0,25,0.00,,---,0.00,VWS V14.00,2013-04-27 16:23:00,
2013-04-27 11:27:00,70.3,34.8,29.92,ENE,58,0.0,10.0,27,0.00,,---,0.00,VWS V14.00,2013-04-27 16:27:00,
2013-04-27 11:28:00,70.1,34.6,29.92,ENE,58,0.0,10.0,27,0.00,,---,0.00,VWS V14.00,2013-04-27 16:28:00,
2013-04-27 11:29:00,70.3,33.8,29.92,ENE,58,3.0,10.0,26,0.00,,---,0.00,VWS V14.00,2013-04-27 16:29:00,
2013-04-27 11:32:00,70.6,34.1,29.92,NE,56,0.0,8.0,26,0.00,,---,0.00,VWS V14.00,2013-04-27 16:32:00,
2013-04-27 11:33:00,70.6,34.1,29.92,NE,56,5.0,8.0,26,0.00,,---,0.00,VWS V14.00,2013-04-27 16:33:00,
2013-04-27 11:34:00,70.8,34.2,29.92,NE,56,0.0,8.0,26,0.00,,---,0.00,VWS V14.00,2013-04-27 16:34:00,
2013-04-27 11:37:00,71.1,34.5,29.92,ENE,58,0.0,8.0,26,0.00,,---,0.00,VWS V14.00,2013-04-27 16:37:00,
2013-04-27 11:38:00,71.1,34.5,29.92,ENE,58,0.0,8.0,26,0.00,,---,0.00,VWS V14.00,2013-04-27 16:38:00,
2013-04-27 11:39:00,71.8,35.1,29.92,ENE,58,0.0,8.0,26,0.00,,---,0.00,VWS V14.00,2013-04-27 16:39:00,
2013-04-27 11:43:00,71.5,34.8,29.92,NE,49,0.0,11.0,26,0.00,,---,0.00,VWS V14.00,2013-04-27 16:43:00,
2013-04-27 11:44:00,71.5,34.8,29.92,NE,48,0.0,11.0,26,0.00,,---,0.00,VWS V14.00,2013-04-27 16:44:00,
2013-04-27 11:48:00,71.1,34.5,29.92,NNE,32,0.0,11.0,26,0.00,,---,0.00,VWS V14.00,2013-04-27 16:48:00,
2013-04-27 11:49:00,71.1,34.5,29.92,NNE,32,0.0,11.0,26,0.00,,---,0.00,VWS V14.00,2013-04-27 16:49:00,
2013-04-27 11:53:00,71.8,32.0,29.92,ENE,65,5.0,11.0,23,0.00,,---,0.00,VWS V14.00,2013-04-27 16:53:00,
2013-04-27 11:54:00,71.6,34.0,29.92,NE,48,6.0,11.0,25,0.00,,---,0.00,VWS V14.00,2013-04-27 16:54:00,
2013-04-27 11:58:00,71.1,34.5,29.92,NE,42,0.0,11.0,26,0.00,,---,0.00,VWS V14.00,2013-04-27 16:58:00,
2013-04-27 11:59:00,70.9,34.3,29.92,North,0,5.0,11.0,26,0.00,,---,0.00,VWS V14.00,2013-04-27 16:59:00,
2013-04-27 12:00:00,71.3,34.7,29.92,North,359,2.0,8.0,26,0.00,,---,0.00,VWS V14.00,2013-04-27 17:00:00,
2013-04-27 12:03:00,72.0,36.2,29.92,NNE,21,3.0,8.0,27,0.00,,---,0.00,VWS V14.00,2013-04-27 17:03:00,
2013-04-27 12:04:00,72.3,35.5,29.92,NNE,20,0.0,8.0,26,0.00,,---,0.00,VWS V14.00,2013-04-27 17:04:00,
2013-04-27 12:05:00,72.0,33.3,29.92,NNE,13,0.0,8.0,24,0.00,,---,0.00,VWS V14.00,2013-04-27 17:05:00,
2013-04-27 12:08:00,72.3,34.5,29.92,ESE,104,3.0,10.0,25,0.00,,---,0.00,VWS V14.00,2013-04-27 17:08:00,
2013-04-27 12:09:00,72.3,34.5,29.92,ESE,104,6.0,10.0,25,0.00,,---,0.00,VWS V14.00,2013-04-27 17:09:00,
2013-04-27 12:10:00,72.7,34.9,29.92,NNE,28,0.0,10.0,25,0.00,,---,0.00,VWS V14.00,2013-04-27 17:10:00,
2013-04-27 12:14:00,72.1,34.4,29.93,North,8,6.0,13.0,25,0.00,,---,0.00,VWS V14.00,2013-04-27 17:14:00,
2013-04-27 12:15:00,72.1,34.4,29.93,NE,42,9.0,13.0,25,0.00,,---,0.00,VWS V14.00,2013-04-27 17:15:00,
2013-04-27 12:19:00,71.3,33.7,29.93,NNE,31,6.0,13.0,25,0.00,,---,0.00,VWS V14.00,2013-04-27 17:19:00,
2013-04-27 12:20:00,71.1,33.5,29.93,NE,47,7.0,13.0,25,0.00,,---,0.00,VWS V14.00,2013-04-27 17:20:00,
2013-04-27 12:24:00,71.8,35.1,29.93,NE,38,0.0,13.0,26,0.00,,---,0.00,VWS V14.00,2013-04-27 17:24:00,
2013-04-27 12:25:00,72.1,35.4,29.93,NE,34,7.0,13.0,26,0.00,,---,0.00,VWS V14.00,2013-04-27 17:25:00,
2013-04-27 12:26:00,72.3,33.5,29.93,NE,55,0.0,13.0,24,0.00,,---,0.00,VWS V14.00,2013-04-27 17:26:00,
2013-04-27 12:29:00,73.0,33.0,29.92,North,359,1.0,2.0,23,0.00,,---,0.00,VWS V14.00,2013-04-27 17:29:00,
2013-04-27 12:30:00,72.8,32.9,29.92,North,359,6.0,7.0,23,0.00,,---,0.00,VWS V14.00,2013-04-27 17:30:00,
2013-04-27 12:31:00,72.8,30.6,29.92,North,359,0.0,7.0,21,0.00,,---,0.00,VWS V14.00,2013-04-27 17:31:00,
2013-04-27 12:34:00,72.8,32.9,29.92,North,357,7.0,9.0,23,0.00,,---,0.00,VWS V14.00,2013-04-27 17:34:00,
2013-04-27 12:35:00,73.0,33.0,29.92,North,359,3.0,9.0,23,0.00,,---,0.00,VWS V14.00,2013-04-27 17:35:00,
2013-04-27 12:36:00,73.2,32.1,29.92,NNE,30,0.0,9.0,22,0.00,,---,0.00,VWS V14.00,2013-04-27 17:36:00,
2013-04-27 12:39:00,72.8,31.8,29.92,NNE,25,5.0,12.0,22,0.00,,---,0.00,VWS V14.00,2013-04-27 17:39:00,
2013-04-27 12:40:00,73.0,32.0,29.92,NE,35,3.0,12.0,22,0.00,,---,0.00,VWS V14.00,2013-04-27 17:40:00,
2013-04-27 12:41:00,73.0,33.0,29.92,NE,37,2.0,12.0,23,0.00,,---,0.00,VWS V14.00,2013-04-27 17:41:00,
2013-04-27 12:45:00,72.3,32.5,29.92,NNE,20,6.0,12.0,23,0.00,,---,0.00,VWS V14.00,2013-04-27 17:45:00,
2013-04-27 12:46:00,72.0,33.3,29.92,North,356,6.0,12.0,24,0.00,,---,0.00,VWS V14.00,2013-04-27 17:46:00,
2013-04-27 12:50:00,72.7,32.8,29.92,NE,42,0.0,12.0,23,0.00,,---,0.00,VWS V14.00,2013-04-27 17:50:00,
2013-04-27 12:51:00,72.7,33.9,29.92,NNE,17,0.0,12.0,24,0.00,,---,0.00,VWS V14.00,2013-04-27 17:51:00,
2013-04-27 12:55:00,72.8,32.9,29.92,NNE,25,5.0,12.0,23,0.00,,---,0.00,VWS V14.00,2013-04-27 17:55:00,
2013-04-27 12:56:00,72.8,32.9,29.92,NNE,32,4.0,12.0,23,0.00,,---,0.00,VWS V14.00,2013-04-27 17:56:00,
2013-04-27 13:00:00,73.2,34.3,29.91,ENE,59,7.0,11.0,24,0.00,,---,0.00,VWS V14.00,2013-04-27 18:00:00,
2013-04-27 13:01:00,73.3,34.4,29.91,NNE,27,6.0,11.0,24,0.00,,---,0.00,VWS V14.00,2013-04-27 18:01:00,
2013-04-27 13:02:00,73.3,34.4,29.91,North,10,6.0,11.0,24,0.00,,---,0.00,VWS V14.00,2013-04-27 18:02:00,
2013-04-27 13:05:00,73.7,32.5,29.91,North,356,5.0,11.0,22,0.00,,---,0.00,VWS V14.00,2013-04-27 18:05:00,
2013-04-27 13:06:00,73.7,32.5,29.91,North,352,3.0,11.0,22,0.00,,---,0.00,VWS V14.00,2013-04-27 18:06:00,
2013-04-27 13:07:00,73.5,32.4,29.91,North,353,2.0,11.0,22,0.00,,---,0.00,VWS V14.00,2013-04-27 18:07:00,
2013-04-27 13:10:00,73.3,31.0,29.91,North,359,3.0,11.0,21,0.00,,---,0.00,VWS V14.00,2013-04-27 18:10:00,
2013-04-27 13:11:00,73.2,31.0,29.91,North,359,0.0,11.0,21,0.00,,---,0.00,VWS V14.00,2013-04-27 18:11:00,
2013-04-27 13:12:00,73.5,33.5,29.91,North,10,5.0,11.0,23,0.00,,---,0.00,VWS V14.00,2013-04-27 18:12:00,
2013-04-27 13:15:00,73.9,32.7,29.91,NE,51,4.0,11.0,22,0.00,,---,0.00,VWS V14.00,2013-04-27 18:15:00,
2013-04-27 13:16:00,73.9,32.7,29.91,NE,54,6.0,11.0,22,0.00,,---,0.00,VWS V14.00,2013-04-27 18:16:00,
2013-04-27 13:17:00,73.9,32.7,29.91,NNE,17,5.0,11.0,22,0.00,,---,0.00,VWS V14.00,2013-04-27 18:17:00,
2013-04-27 13:20:00,74.2,35.1,29.91,North,4,6.0,12.0,24,0.00,,---,0.00,VWS V14.00,2013-04-27 18:20:00,
2013-04-27 13:21:00,74.2,35.1,29.91,NNE,21,10.0,12.0,24,0.00,,---,0.00,VWS V14.00,2013-04-27 18:21:00,
2013-04-27 13:22:00,74.7,33.4,29.91,NNE,28,0.0,12.0,22,0.00,,---,0.00,VWS V14.00,2013-04-27 18:22:00,
2013-04-27 13:25:00,75.1,33.7,29.91,East,88,11.0,12.0,22,0.00,,---,0.00,VWS V14.00,2013-04-27 18:25:00,
2013-04-27 13:26:00,74.6,33.3,29.91,East,86,0.0,12.0,22,0.00,,---,0.00,VWS V14.00,2013-04-27 18:26:00,
2013-04-27 13:27:00,74.4,33.1,29.91,ENE,59,0.0,12.0,22,0.00,,---,0.00,VWS V14.00,2013-04-27 18:27:00,
2013-04-27 13:31:00,75.1,32.5,29.90,North,4,10.0,11.0,21,0.00,,---,0.00,VWS V14.00,2013-04-27 18:31:00,
2013-04-27 13:32:00,74.6,32.1,29.90,NNE,25,15.0,15.0,21,0.00,,---,0.00,VWS V14.00,2013-04-27 18:32:00,
2013-04-27 13:36:00,74.4,33.1,29.90,East,92,3.0,15.0,22,0.00,,---,0.00,VWS V14.00,2013-04-27 18:36:00,
2013-04-27 13:37:00,74.9,33.5,29.90,NE,52,8.0,15.0,22,0.00,,---,0.00,VWS V14.00,2013-04-27 18:37:00,
2013-04-27 13:38:00,74.6,32.1,29.90,NNE,25,1.0,15.0,21,0.00,,---,0.00,VWS V14.00,2013-04-27 18:38:00,
2013-04-27 13:41:00,74.7,32.2,29.90,North,359,0.0,15.0,21,0.00,,---,0.00,VWS V14.00,2013-04-27 18:41:00,
2013-04-27 13:42:00,74.9,31.2,29.90,NNE,32,3.0,15.0,20,0.00,,---,0.00,VWS V14.00,2013-04-27 18:42:00,
2013-04-27 13:43:00,75.1,31.3,29.90,NE,48,0.0,15.0,20,0.00,,---,0.00,VWS V14.00,2013-04-27 18:43:00,
2013-04-27 13:46:00,76.0,33.3,29.90,NE,41,0.0,15.0,21,0.00,,---,0.00,VWS V14.00,2013-04-27 18:46:00,
2013-04-27 13:47:00,76.0,32.1,29.90,ENE,68,0.0,15.0,20,0.00,,---,0.00,VWS V14.00,2013-04-27 18:47:00,
2013-04-27 13:48:00,76.0,30.8,29.90,East,79,0.0,15.0,19,0.00,,---,0.00,VWS V14.00,2013-04-27 18:48:00,
2013-04-27 13:51:00,76.0,32.1,29.90,ENE,61,0.0,15.0,20,0.00,,---,0.00,VWS V14.00,2013-04-27 18:51:00,
2013-04-27 13:52:00,76.1,30.9,29.90,NE,40,1.0,15.0,19,0.00,,---,0.00,VWS V14.00,2013-04-27 18:52:00,
2013-04-27 13:53:00,76.3,29.7,29.90,ENE,65,2.0,15.0,18,0.00,,---,0.00,VWS V14.00,2013-04-27 18:53:00,
2013-04-27 13:57:00,75.1,30.1,29.90,NNE,17,0.0,15.0,19,0.00,,---,0.00,VWS V14.00,2013-04-27 18:57:00,
2013-04-27 13:58:00,74.7,31.0,29.89,North,349,5.0,15.0,20,0.00,,---,0.00,VWS V14.00,2013-04-27 18:58:00,
2013-04-27 14:02:00,74.9,32.4,29.89,NNE,21,11.0,12.0,21,0.00,,---,0.00,VWS V14.00,2013-04-27 19:02:00,
2013-04-27 14:03:00,74.6,30.9,29.89,NNE,31,0.0,12.0,20,0.00,,---,0.00,VWS V14.00,2013-04-27 19:03:00,
2013-04-27 14:04:00,74.6,32.1,29.89,NE,54,3.0,12.0,21,0.00,,---,0.00,VWS V14.00,2013-04-27 19:04:00,
2013-04-27 14:07:00,75.8,30.6,29.89,NNE,31,0.0,12.0,19,0.00,,---,0.00,VWS V14.00,2013-04-27 19:07:00,
2013-04-27 14:08:00,75.6,30.5,29.89,North,11,0.0,12.0,19,0.00,,---,0.00,VWS V14.00,2013-04-27 19:08:00,
2013-04-27 14:09:00,75.8,30.6,29.89,NE,37,3.0,12.0,19,0.00,,---,0.00,VWS V14.00,2013-04-27 19:09:00,
2013-04-27 14:12:00,76.5,32.5,29.89,NE,42,5.0,12.0,20,0.00,,---,0.00,VWS V14.00,2013-04-27 19:12:00,
2013-04-27 14:13:00,76.1,29.6,29.89,NE,40,2.0,12.0,18,0.00,,---,0.00,VWS V14.00,2013-04-27 19:13:00,
2013-04-27 14:15:00,76.0,33.3,29.89,NE,52,0.0,17.0,21,0.00,,---,0.00,VWS V14.00,2013-04-27 19:15:00,
2013-04-27 14:17:00,75.3,31.5,29.89,NE,49,5.0,17.0,20,0.00,,---,0.00,VWS V14.00,2013-04-27 19:17:00,
2013-04-27 14:18:00,75.1,31.3,29.89,ENE,64,6.0,17.0,20,0.00,,---,0.00,VWS V14.00,2013-04-27 19:18:00,
2013-04-27 14:20:00,75.8,31.9,29.89,ENE,58,7.0,17.0,20,0.00,,---,0.00,VWS V14.00,2013-04-27 19:20:00,
2013-04-27 14:23:00,75.6,30.5,29.89,North,11,7.0,17.0,19,0.00,,---,0.00,VWS V14.00,2013-04-27 19:23:00,
2013-04-27 14:24:00,75.6,30.5,29.89,NNE,14,6.0,17.0,19,0.00,,---,0.00,VWS V14.00,2013-04-27 19:24:00,
2013-04-27 14:25:00,76.0,33.3,29.89,North,0,0.0,17.0,21,0.00,,---,0.00,VWS V14.00,2013-04-27 19:25:00,
2013-04-27 14:26:00,76.0,33.3,29.89,NNE,24,1.0,17.0,21,0.00,,---,0.00,VWS V14.00,2013-04-27 19:26:00,
2013-04-27 14:28:00,75.8,31.9,29.89,NNE,17,9.0,17.0,20,0.00,,---,0.00,VWS V14.00,2013-04-27 19:28:00,
2013-04-27 14:29:00,75.3,27.5,29.89,North,7,2.0,17.0,17,0.00,,---,0.00,VWS V14.00,2013-04-27 19:29:00,
2013-04-27 14:31:00,75.3,30.2,29.89,NNE,28,11.0,12.0,19,0.00,,---,0.00,VWS V14.00,2013-04-27 19:31:00,
2013-04-27 14:33:00,75.6,30.5,29.89,NE,55,2.0,12.0,19,0.00,,---,0.00,VWS V14.00,2013-04-27 19:33:00,
2013-04-27 14:36:00,75.6,33.0,29.89,NNE,28,3.0,12.0,21,0.00,,---,0.00,VWS V14.00,2013-04-27 19:36:00,
2013-04-27 14:37:00,75.6,33.0,29.89,NNE,18,5.0,12.0,21,0.00,,---,0.00,VWS V14.00,2013-04-27 19:37:00,
2013-04-27 14:39:00,75.6,31.7,29.89,East,89,0.0,17.0,20,0.00,,---,0.00,VWS V14.00,2013-04-27 19:39:00,
2013-04-27 14:41:00,76.3,31.0,29.89,North,359,0.0,17.0,19,0.00,,---,0.00,VWS V14.00,2013-04-27 19:41:00,
2013-04-27 14:42:00,76.3,31.0,29.89,NNE,28,6.0,17.0,19,0.00,,---,0.00,VWS V14.00,2013-04-27 19:42:00,
2013-04-27 14:44:00,76.0,28.1,29.89,NNE,31,0.0,17.0,17,0.00,,---,0.00,VWS V14.00,2013-04-27 19:44:00,
2013-04-27 14:46:00,75.8,33.1,29.89,NNE,24,0.0,17.0,21,0.00,,---,0.00,VWS V14.00,2013-04-27 19:46:00,
2013-04-27 14:48:00,75.6,33.0,29.89,NNE,17,13.0,17.0,21,0.00,,---,0.00,VWS V14.00,2013-04-27 19:48:00,
2013-04-27 14:50:00,75.8,31.9,29.89,North,8,0.0,17.0,20,0.00,,---,0.00,VWS V14.00,2013-04-27 19:50:00,
2013-04-27 14:53:00,76.3,31.0,29.89,NNE,27,0.0,17.0,19,0.00,,---,0.00,VWS V14.00,2013-04-27 19:53:00,
2013-04-27 14:54:00,76.5,31.2,29.89,North,359,0.0,17.0,19,0.00,,---,0.00,VWS V14.00,2013-04-27 19:54:00,
2013-04-27 14:55:00,76.7,33.9,29.89,North,354,2.0,17.0,21,0.00,,---,0.00,VWS V14.00,2013-04-27 19:55:00,
2013-04-27 14:56:00,76.7,33.9,29.89,North,6,6.0,17.0,21,0.00,,---,0.00,VWS V14.00,2013-04-27 19:56:00,
2013-04-27 14:58:00,76.1,34.5,29.89,NE,47,4.0,17.0,22,0.00,,---,0.00,VWS V14.00,2013-04-27 19:58:00,
2013-04-27 14:59:00,76.0,32.1,29.88,North,11,10.0,17.0,20,0.00,,---,0.00,VWS V14.00,2013-04-27 19:59:00,
2013-04-27 15:01:00,75.8,33.1,29.88,ENE,62,7.0,8.0,21,0.00,,---,0.00,VWS V14.00,2013-04-27 20:01:00,
2013-04-27 15:03:00,75.6,33.0,29.88,ENE,69,4.0,10.0,21,0.00,,---,0.00,VWS V14.00,2013-04-27 20:03:00,
2013-04-27 15:04:00,75.4,32.8,29.88,NNE,25,0.0,13.0,21,0.00,,---,0.00,VWS V14.00,2013-04-27 20:04:00,
2013-04-27 15:07:00,75.1,31.3,29.88,NNE,14,0.0,15.0,20,0.00,,---,0.00,VWS V14.00,2013-04-27 20:07:00,
2013-04-27 15:08:00,75.3,33.9,29.88,NNE,30,0.0,15.0,22,0.00,,---,0.00,VWS V14.00,2013-04-27 20:08:00,
2013-04-27 15:09:00,75.6,34.1,29.88,NNE,30,0.0,15.0,22,0.00,,---,0.00,VWS V14.00,2013-04-27 20:09:00,
2013-04-27 15:10:00,76.0,34.5,29.88,NE,51,12.0,15.0,22,0.00,,---,0.00,VWS V14.00,2013-04-27 20:10:00,
2013-04-27 15:12:00,75.1,34.8,29.88,NE,45,0.0,15.0,23,0.00,,---,0.00,VWS V14.00,2013-04-27 20:12:00,
2013-04-27 15:13:00,74.9,33.5,29.86,North,7,10.0,15.0,22,0.00,,---,0.00,VWS V14.00,2013-04-27 20:13:00,
2013-04-27 15:14:00,75.3,32.7,29.86,North,8,0.0,15.0,21,0.00,,---,0.00,VWS V14.00,2013-04-27 20:14:00,
2013-04-27 15:15:00,75.3,32.7,29.86,North,8,2.0,15.0,21,0.00,,---,0.00,VWS V14.00,2013-04-27 20:15:00,
2013-04-27 15:19:00,76.1,33.4,29.86,NNE,17,2.0,15.0,21,0.00,,---,0.00,VWS V14.00,2013-04-27 20:19:00,
2013-04-27 15:20:00,76.1,33.4,29.86,North,354,0.0,15.0,21,0.00,,---,0.00,VWS V14.00,2013-04-27 20:20:00,
2013-04-27 15:21:00,76.5,33.7,29.86,NE,52,5.0,15.0,21,0.00,,---,0.00,VWS V14.00,2013-04-27 20:21:00,
2013-04-27 15:22:00,76.1,33.4,29.86,NNE,24,13.0,16.0,21,0.00,,---,0.00,VWS V14.00,2013-04-27 20:22:00,
2013-04-27 15:25:00,75.6,35.2,29.86,NNE,14,0.0,16.0,23,0.00,,---,0.00,VWS V14.00,2013-04-27 20:25:00,
2013-04-27 15:26:00,75.8,35.4,29.86,NNW,336,11.0,16.0,23,0.00,,---,0.00,VWS V14.00,2013-04-27 20:26:00,
2013-04-27 15:27:00,75.6,34.1,29.86,NE,45,2.0,16.0,22,0.00,,---,0.00,VWS V14.00,2013-04-27 20:27:00,
2013-04-27 15:29:00,75.4,35.1,29.85,North,6,7.0,16.0,23,0.00,,---,0.00,VWS V14.00,2013-04-27 20:29:00,
2013-04-27 15:31:00,75.4,35.1,29.85,NE,45,2.0,10.0,23,0.00,,---,0.00,VWS V14.00,2013-04-27 20:31:00,
2013-04-27 15:32:00,75.1,35.9,29.85,North,0,0.0,14.0,24,0.00,,---,0.00,VWS V14.00,2013-04-27 20:32:00,
2013-04-27 15:34:00,75.1,34.8,29.85,NNE,25,2.0,14.0,23,0.00,,---,0.00,VWS V14.00,2013-04-27 20:34:00,
2013-04-27 15:36:00,75.8,35.4,29.85,NE,54,2.0,14.0,23,0.00,,---,0.00,VWS V14.00,2013-04-27 20:36:00,
2013-04-27 15:38:00,75.6,36.3,29.85,North,0,10.0,16.0,24,0.00,,---,0.00,VWS V14.00,2013-04-27 20:38:00,
2013-04-27 15:40:00,75.4,36.1,29.85,NNW,344,0.0,16.0,24,0.00,,---,0.00,VWS V14.00,2013-04-27 20:40:00,
2013-04-27 15:42:00,75.6,34.1,29.85,North,356,0.0,16.0,22,0.00,,---,0.00,VWS V14.00,2013-04-27 20:42:00,
2013-04-27 15:47:00,74.7,33.4,29.84,North,356,0.0,16.0,22,0.00,,---,0.00,VWS V14.00,2013-04-27 20:47:00,
2013-04-27 15:52:00,75.1,35.9,29.84,North,1,8.0,17.0,24,0.00,,---,0.00,VWS V14.00,2013-04-27 20:52:00,
2013-04-27 15:53:00,75.3,36.0,29.84,NNE,17,2.0,17.0,24,0.00,,---,0.00,VWS V14.00,2013-04-27 20:53:00,
2013-04-27 15:57:00,74.9,34.6,29.84,NNE,24,0.0,17.0,23,0.00,,---,0.00,VWS V14.00,2013-04-27 20:57:00,
2013-04-27 15:58:00,75.1,34.8,29.84,NNE,30,0.0,17.0,23,0.00,,---,0.00,VWS V14.00,2013-04-27 20:58:00,
2013-04-27 16:01:00,76.1,35.7,29.84,NE,49,2.0,5.0,23,0.00,,---,0.00,VWS V14.00,2013-04-27 21:01:00,
2013-04-27 16:03:00,76.5,34.9,29.84,NNE,30,10.0,13.0,22,0.00,,---,0.00,VWS V14.00,2013-04-27 21:03:00,
2013-04-27 16:04:00,76.1,34.5,29.84,NE,40,7.0,13.0,22,0.00,,---,0.00,VWS V14.00,2013-04-27 21:04:00,
2013-04-27 16:06:00,76.0,36.6,29.84,NE,49,8.0,13.0,24,0.00,,---,0.00,VWS V14.00,2013-04-27 21:06:00,
2013-04-27 16:07:00,75.6,36.3,29.84,NNE,28,0.0,13.0,24,0.00,,---,0.00,VWS V14.00,2013-04-27 21:07:00,
2013-04-27 16:09:00,75.4,35.1,29.84,North,349,0.0,13.0,23,0.00,,---,0.00,VWS V14.00,2013-04-27 21:09:00,
2013-04-27 16:10:00,75.3,35.0,29.84,North,359,6.0,13.0,23,0.00,,---,0.00,VWS V14.00,2013-04-27 21:10:00,
2013-04-27 16:12:00,75.6,35.2,29.84,NNE,18,10.0,14.0,23,0.00,,---,0.00,VWS V14.00,2013-04-27 21:12:00,
2013-04-27 16:13:00,75.6,35.2,29.84,NNE,18,10.0,14.0,23,0.00,,---,0.00,VWS V14.00,2013-04-27 21:13:00,
2013-04-27 16:14:00,75.6,36.3,29.77,NNE,27,0.0,16.0,24,0.00,,---,0.00,VWS V14.00,2013-04-27 21:14:00,
2013-04-27 16:15:00,75.4,36.1,29.77,NNE,28,7.0,16.0,24,0.00,,---,0.00,VWS V14.00,2013-04-27 21:15:00,
2013-04-27 16:18:00,75.8,36.5,29.77,ENE,66,1.0,16.0,24,0.00,,---,0.00,VWS V14.00,2013-04-27 21:18:00,
2013-04-27 16:19:00,75.6,36.3,29.77,NE,42,0.0,16.0,24,0.00,,---,0.00,VWS V14.00,2013-04-27 21:19:00,
2013-04-27 16:20:00,76.3,36.9,29.77,NNE,23,1.0,16.0,24,0.00,,---,0.00,VWS V14.00,2013-04-27 21:20:00,
2013-04-27 16:23:00,75.4,36.1,29.77,North,0,1.0,16.0,24,0.00,,---,0.00,VWS V14.00,2013-04-27 21:23:00,
2013-04-27 16:24:00,75.4,36.1,29.77,NNE,27,11.0,16.0,24,0.00,,---,0.00,VWS V14.00,2013-04-27 21:24:00,
2013-04-27 16:25:00,75.6,36.3,29.77,NNE,30,12.0,16.0,24,0.00,,---,0.00,VWS V14.00,2013-04-27 21:25:00,
2013-04-27 16:28:00,75.6,37.3,29.77,NNE,20,12.0,16.0,25,0.00,,---,0.00,VWS V14.00,2013-04-27 21:28:00,
2013-04-27 16:29:00,75.4,36.1,29.77,NNE,28,6.0,16.0,24,0.00,,---,0.00,VWS V14.00,2013-04-27 21:29:00,
2013-04-27 16:31:00,75.4,36.1,29.77,NNE,25,0.0,12.0,24,0.00,,---,0.00,VWS V14.00,2013-04-27 21:31:00,
2013-04-27 16:32:00,75.6,36.3,29.77,NNE,24,1.0,12.0,24,0.00,,---,0.00,VWS V14.00,2013-04-27 21:32:00,
2013-04-27 16:33:00,75.8,36.5,29.77,NE,48,0.0,12.0,24,0.00,,---,0.00,VWS V14.00,2013-04-27 21:33:00,
2013-04-27 16:34:00,76.3,36.9,29.77,North,7,11.0,12.0,24,0.00,,---,0.00,VWS V14.00,2013-04-27 21:34:00,
2013-04-27 16:36:00,76.1,35.7,29.77,NE,48,6.0,12.0,23,0.00,,---,0.00,VWS V14.00,2013-04-27 21:36:00,
2013-04-27 16:39:00,76.1,35.7,29.77,North,356,0.0,12.0,23,0.00,,---,0.00,VWS V14.00,2013-04-27 21:39:00,
2013-04-27 16:41:00,76.5,36.0,29.77,NNE,18,0.0,12.0,23,0.00,,---,0.00,VWS V14.00,2013-04-27 21:41:00,
2013-04-27 16:43:00,76.7,35.0,29.77,NE,38,12.0,13.0,22,0.00,,---,0.00,VWS V14.00,2013-04-27 21:43:00,
2013-04-27 16:46:00,76.7,33.9,29.76,ENE,71,0.0,13.0,21,0.00,,---,0.00,VWS V14.00,2013-04-27 21:46:00,
2013-04-27 16:48:00,77.0,34.1,29.76,NNE,32,0.0,13.0,21,0.00,,---,0.00,VWS V14.00,2013-04-27 21:48:00,
2013-04-27 16:49:00,76.8,36.2,29.76,NE,45,8.0,14.0,23,0.00,,---,0.00,VWS V14.00,2013-04-27 21:49:00,
2013-04-27 16:52:00,76.1,34.5,29.76,North,359,0.0,14.0,22,0.00,,---,0.00,VWS V14.00,2013-04-27 21:52:00,
2013-04-27 16:53:00,76.0,35.6,29.76,North,8,9.0,14.0,23,0.00,,---,0.00,VWS V14.00,2013-04-27 21:53:00,
2013-04-27 16:54:00,76.0,35.6,29.76,North,11,0.0,14.0,23,0.00,,---,0.00,VWS V14.00,2013-04-27 21:54:00,
2013-04-27 16:55:00,76.1,35.7,29.76,NNE,27,0.0,14.0,23,0.00,,---,0.00,VWS V14.00,2013-04-27 21:55:00,
2013-04-27 16:58:00,76.0,34.5,29.76,NE,44,0.0,14.0,22,0.00,,---,0.00,VWS V14.00,2013-04-27 21:58:00,
2013-04-27 16:59:00,76.3,33.5,29.75,ENE,73,3.0,14.0,21,0.00,,---,0.00,VWS V14.00,2013-04-27 21:59:00,
2013-04-27 17:00:00,76.3,34.7,29.75,ENE,58,0.0,12.0,22,0.00,,---,0.00,VWS V14.00,2013-04-27 22:00:00,
2013-04-27 17:04:00,75.8,33.1,29.75,NNE,25,8.0,13.0,21,0.00,,---,0.00,VWS V14.00,2013-04-27 22:04:00,
2013-04-27 17:05:00,75.8,33.1,29.75,NNE,25,0.0,13.0,21,0.00,,---,0.00,VWS V14.00,2013-04-27 22:05:00,
2013-04-27 17:06:00,75.8,34.3,29.75,ENE,69,0.0,13.0,22,0.00,,---,0.00,VWS V14.00,2013-04-27 22:06:00,
2013-04-27 17:07:00,75.6,34.1,29.75,East,92,5.0,13.0,22,0.00,,---,0.00,VWS V14.00,2013-04-27 22:07:00,
2013-04-27 17:10:00,76.3,32.3,29.75,East,89,0.0,13.0,20,0.00,,---,0.00,VWS V14.00,2013-04-27 22:10:00,
2013-04-27 17:12:00,76.7,33.9,29.75,NE,35,0.0,13.0,21,0.00,,---,0.00,VWS V14.00,2013-04-27 22:12:00,
2013-04-27 17:13:00,76.8,34.0,29.75,ENE,62,2.0,13.0,21,0.00,,---,0.00,VWS V14.00,2013-04-27 22:13:00,
2013-04-27 17:15:00,76.3,32.3,29.77,NE,49,0.0,13.0,20,0.00,,---,0.00,VWS V14.00,2013-04-27 22:15:00,
2013-04-27 17:16:00,76.5,32.5,29.77,NE,51,2.0,13.0,20,0.00,,---,0.00,VWS V14.00,2013-04-27 22:16:00,
2013-04-27 17:17:00,76.1,32.2,29.77,NNE,27,0.0,13.0,20,0.00,,---,0.00,VWS V14.00,2013-04-27 22:17:00,
2013-04-27 17:18:00,76.3,32.3,29.77,NNE,27,9.0,13.0,20,0.00,,---,0.00,VWS V14.00,2013-04-27 22:18:00,
2013-04-27 17:20:00,76.5,31.2,29.77,NE,56,3.0,17.0,19,0.00,,---,0.00,VWS V14.00,2013-04-27 22:20:00,
2013-04-27 17:21:00,76.3,32.3,29.77,NE,56,5.0,17.0,20,0.00,,---,0.00,VWS V14.00,2013-04-27 22:21:00,
2013-04-27 17:22:00,76.1,33.4,29.77,NE,47,0.0,17.0,21,0.00,,---,0.00,VWS V14.00,2013-04-27 22:22:00,
2013-04-27 17:23:00,76.3,33.5,29.77,NE,45,0.0,17.0,21,0.00,,---,0.00,VWS V14.00,2013-04-27 22:23:00,
2013-04-27 17:25:00,76.0,34.5,29.77,ENE,58,12.0,17.0,22,0.00,,---,0.00,VWS V14.00,2013-04-27 22:25:00,
2013-04-27 17:26:00,75.8,34.3,29.77,ENE,62,2.0,17.0,22,0.00,,---,0.00,VWS V14.00,2013-04-27 22:26:00,
2013-04-27 17:27:00,75.8,33.1,29.77,NNE,17,11.0,17.0,21,0.00,,---,0.00,VWS V14.00,2013-04-27 22:27:00,
2013-04-27 17:28:00,75.8,33.1,29.77,North,7,0.0,17.0,21,0.00,,---,0.00,VWS V14.00,2013-04-27 22:28:00,
2013-04-27 17:29:00,76.0,33.3,29.77,North,8,5.0,17.0,21,0.00,,---,0.00,VWS V14.00,2013-04-27 22:29:00,
2013-04-27 17:30:00,76.0,30.8,29.77,ENE,58,2.0,12.0,19,0.00,,---,0.00,VWS V14.00,2013-04-27 22:30:00,
2013-04-27 17:31:00,76.0,30.8,29.77,NE,40,0.0,12.0,19,0.00,,---,0.00,VWS V14.00,2013-04-27 22:31:00,
2013-04-27 17:32:00,76.1,30.9,29.77,NE,35,0.0,12.0,19,0.00,,---,0.00,VWS V14.00,2013-04-27 22:32:00,
2013-04-27 17:33:00,76.1,30.9,29.77,ENE,72,6.0,14.0,19,0.00,,---,0.00,VWS V14.00,2013-04-27 22:33:00,
2013-04-27 17:34:00,76.0,29.5,29.77,NE,51,0.0,14.0,18,0.00,,---,0.00,VWS V14.00,2013-04-27 22:34:00,
2013-04-27 17:35:00,76.1,29.6,29.77,NE,54,4.0,14.0,18,0.00,,---,0.00,VWS V14.00,2013-04-27 22:35:00,
2013-04-27 17:36:00,75.8,29.3,29.77,NE,55,5.0,14.0,18,0.00,,---,0.00,VWS V14.00,2013-04-27 22:36:00,
2013-04-27 17:37:00,75.6,31.7,29.77,NNE,24,13.0,14.0,20,0.00,,---,0.00,VWS V14.00,2013-04-27 22:37:00,
2013-04-27 17:39:00,75.4,31.6,29.77,NE,37,5.0,14.0,20,0.00,,---,0.00,VWS V14.00,2013-04-27 22:39:00,
2013-04-27 17:41:00,75.3,30.2,29.77,NE,42,6.0,14.0,19,0.00,,---,0.00,VWS V14.00,2013-04-27 22:41:00,
2013-04-27 17:43:00,75.1,32.5,29.77,NE,40,2.0,14.0,21,0.00,,---,0.00,VWS V14.00,2013-04-27 22:43:00,
2013-04-27 17:44:00,75.1,32.5,29.77,NNE,30,10.0,14.0,21,0.00,,---,0.00,VWS V14.00,2013-04-27 22:44:00,
2013-04-27 17:45:00,74.9,29.9,29.77,North,8,0.0,14.0,19,0.00,,---,0.00,VWS V14.00,2013-04-27 22:45:00,
2013-04-27 17:46:00,74.7,28.4,29.77,North,11,0.0,14.0,18,0.00,,---,0.00,VWS V14.00,2013-04-27 22:46:00,
2013-04-27 17:48:00,74.9,31.2,29.77,North,11,8.0,14.0,20,0.00,,---,0.00,VWS V14.00,2013-04-27 22:48:00,
2013-04-27 17:50:00,75.3,32.7,29.77,NE,52,0.0,14.0,21,0.00,,---,0.00,VWS V14.00,2013-04-27 22:50:00,
2013-04-27 17:51:00,75.6,31.7,29.77,NNE,31,10.0,14.0,20,0.00,,---,0.00,VWS V14.00,2013-04-27 22:51:00,
2013-04-27 17:52:00,75.4,31.6,29.77,NNE,14,1.0,14.0,20,0.00,,---,0.00,VWS V14.00,2013-04-27 22:52:00,
2013-04-27 17:53:00,75.3,32.7,29.77,NNE,20,2.0,14.0,21,0.00,,---,0.00,VWS V14.00,2013-04-27 22:53:00,
2013-04-27 17:55:00,75.6,31.7,29.77,North,6,1.0,14.0,20,0.00,,---,0.00,VWS V14.00,2013-04-27 22:55:00,
2013-04-27 17:56:00,75.6,30.5,29.77,NNE,27,0.0,14.0,19,0.00,,---,0.00,VWS V14.00,2013-04-27 22:56:00,
2013-04-27 17:57:00,75.8,30.6,29.77,NE,55,7.0,14.0,19,0.00,,---,0.00,VWS V14.00,2013-04-27 22:57:00,
2013-04-27 17:59:00,75.6,30.5,29.76,ENE,59,0.0,14.0,19,0.00,,---,0.00,VWS V14.00,2013-04-27 22:59:00,
2013-04-27 18:00:00,75.6,30.5,29.76,ENE,59,0.0,1.0,19,0.00,,---,0.00,VWS V14.00,2013-04-27 23:00:00,
2013-04-27 18:01:00,75.6,31.7,29.76,ENE,62,0.0,3.0,20,0.00,,---,0.00,VWS V14.00,2013-04-27 23:01:00,
2013-04-27 18:02:00,75.8,31.9,29.76,NNE,23,0.0,3.0,20,0.00,,---,0.00,VWS V14.00,2013-04-27 23:02:00,
2013-04-27 18:04:00,75.6,31.7,29.76,North,0,10.0,14.0,20,0.00,,---,0.00,VWS V14.00,2013-04-27 23:04:00,
2013-04-27 18:05:00,75.4,31.6,29.76,NNE,18,2.0,14.0,20,0.00,,---,0.00,VWS V14.00,2013-04-27 23:05:00,
2013-04-27 18:07:00,75.3,30.2,29.76,NNE,18,0.0,14.0,19,0.00,,---,0.00,VWS V14.00,2013-04-27 23:07:00,
2013-04-27 18:08:00,75.1,31.3,29.76,North,11,0.0,14.0,20,0.00,,---,0.00,VWS V14.00,2013-04-27 23:08:00,
2013-04-27 18:09:00,75.1,31.3,29.76,NE,42,2.0,14.0,20,0.00,,---,0.00,VWS V14.00,2013-04-27 23:09:00,
2013-04-27 18:10:00,75.3,30.2,29.76,NNE,28,1.0,14.0,19,0.00,,---,0.00,VWS V14.00,2013-04-27 23:10:00,
2013-04-27 18:12:00,75.3,27.5,29.76,NNE,21,0.0,14.0,17,0.00,,---,0.00,VWS V14.00,2013-04-27 23:12:00,
2013-04-27 18:13:00,75.1,27.4,29.76,NNE,23,0.0,14.0,17,0.00,,---,0.00,VWS V14.00,2013-04-27 23:13:00,
2013-04-27 18:15:00,75.3,31.5,29.78,NNE,27,0.0,14.0,20,0.00,,---,0.00,VWS V14.00,2013-04-27 23:15:00,
2013-04-27 18:16:00,75.3,32.7,29.78,NNE,20,4.0,14.0,21,0.00,,---,0.00,VWS V14.00,2013-04-27 23:16:00,
2013-04-27 18:17:00,75.3,32.7,29.78,ENE,66,8.0,14.0,21,0.00,,---,0.00,VWS V14.00,2013-04-27 23:17:00,
2013-04-27 18:18:00,75.1,33.7,29.78,NNE,23,2.0,14.0,22,0.00,,---,0.00,VWS V14.00,2013-04-27 23:18:00,
2013-04-27 18:20:00,74.9,32.4,29.78,NNW,347,0.0,14.0,21,0.00,,---,0.00,VWS V14.00,2013-04-27 23:20:00,
2013-04-27 18:21:00,74.9,33.5,29.78,NNE,18,0.0,14.0,22,0.00,,---,0.00,VWS V14.00,2013-04-27 23:21:00,
2013-04-27 18:22:00,74.9,29.9,29.78,ENE,61,0.0,14.0,19,0.00,,---,0.00,VWS V14.00,2013-04-27 23:22:00,
2013-04-27 18:23:00,75.1,31.3,29.78,ENE,61,0.0,14.0,20,0.00,,---,0.00,VWS V14.00,2013-04-27 23:23:00,
2013-04-27 18:24:00,74.9,29.9,29.78,ENE,61,0.0,14.0,19,0.00,,---,0.00,VWS V14.00,2013-04-27 23:24:00,
2013-04-27 18:25:00,74.9,29.9,29.78,North,10,8.0,14.0,19,0.00,,---,0.00,VWS V14.00,2013-04-27 23:25:00,
2013-04-27 18:27:00,74.7,32.2,29.78,NNE,28,0.0,14.0,21,0.00,,---,0.00,VWS V14.00,2013-04-27 23:27:00,
2013-04-27 18:28:00,74.7,32.2,29.78,NNE,20,1.0,14.0,21,0.00,,---,0.00,VWS V14.00,2013-04-27 23:28:00,
2013-04-27 18:29:00,74.7,31.0,29.77,North,0,12.0,14.0,20,0.00,,---,0.00,VWS V14.00,2013-04-27 23:29:00,
2013-04-27 18:30:00,74.7,31.0,29.77,North,0,10.0,11.0,20,0.00,,---,0.00,VWS V14.00,2013-04-27 23:30:00,
2013-04-27 18:32:00,74.7,32.2,29.77,NNE,28,0.0,12.0,21,0.00,,---,0.00,VWS V14.00,2013-04-27 23:32:00,
2013-04-27 18:33:00,74.6,32.1,29.77,North,359,9.0,12.0,21,0.00,,---,0.00,VWS V14.00,2013-04-27 23:33:00,
2013-04-27 18:34:00,74.6,32.1,29.77,NE,42,6.0,12.0,21,0.00,,---,0.00,VWS V14.00,2013-04-27 23:34:00,
2013-04-27 18:35:00,74.6,32.1,29.77,NNE,23,1.0,12.0,21,0.00,,---,0.00,VWS V14.00,2013-04-27 23:35:00,
2013-04-27 18:37:00,74.0,29.2,29.77,NNE,16,5.0,12.0,19,0.00,,---,0.00,VWS V14.00,2013-04-27 23:37:00,
2013-04-27 18:38:00,74.0,29.2,29.77,NNE,16,0.0,12.0,19,0.00,,---,0.00,VWS V14.00,2013-04-27 23:38:00,
2013-04-27 18:40:00,74.0,31.6,29.77,ENE,62,12.0,13.0,21,0.00,,---,0.00,VWS V14.00,2013-04-27 23:40:00,
2013-04-27 18:41:00,74.0,31.6,29.77,NE,48,9.0,13.0,21,0.00,,---,0.00,VWS V14.00,2013-04-27 23:41:00,
2013-04-27 18:42:00,74.0,32.8,29.77,ENE,68,3.0,13.0,22,0.00,,---,0.00,VWS V14.00,2013-04-27 23:42:00,
2013-04-27 18:43:00,74.0,32.8,29.77,NNE,28,2.0,13.0,22,0.00,,---,0.00,VWS V14.00,2013-04-27 23:43:00,
2013-04-27 18:44:00,74.0,33.9,29.77,NNE,23,15.0,15.0,23,0.00,,---,0.00,VWS V14.00,2013-04-27 23:44:00,
2013-04-27 18:45:00,73.9,31.5,29.77,NE,55,0.0,15.0,21,0.00,,---,0.00,VWS V14.00,2013-04-27 23:45:00,
2013-04-27 18:46:00,73.9,31.5,29.77,NE,55,7.0,15.0,21,0.00,,---,0.00,VWS V14.00,2013-04-27 23:46:00,
2013-04-27 18:48:00,73.9,31.5,29.77,NE,40,5.0,15.0,21,0.00,,---,0.00,VWS V14.00,2013-04-27 23:48:00,
2013-04-27 18:49:00,73.7,31.4,29.77,NNE,27,11.0,15.0,21,0.00,,---,0.00,VWS V14.00,2013-04-27 23:49:00,
2013-04-27 18:51:00,73.9,32.7,29.77,NNE,20,8.0,15.0,22,0.00,,---,0.00,VWS V14.00,2013-04-27 23:51:00,
2013-04-27 18:53:00,73.9,32.7,29.77,North,0,6.0,15.0,22,0.00,,---,0.00,VWS V14.00,2013-04-27 23:53:00,
2013-04-27 18:54:00,73.9,32.7,29.77,North,0,2.0,15.0,22,0.00,,---,0.00,VWS V14.00,2013-04-27 23:54:00,
2013-04-27 18:56:00,73.9,31.5,29.77,NNE,25,4.0,15.0,21,0.00,,---,0.00,VWS V14.00,2013-04-27 23:56:00,
2013-04-27 18:57:00,73.9,31.5,29.77,North,4,0.0,15.0,21,0.00,,---,0.00,VWS V14.00,2013-04-27 23:57:00,
2013-04-27 18:58:00,73.7,32.5,29.77,NNE,25,0.0,15.0,22,0.00,,---,0.00,VWS V14.00,2013-04-27 23:58:00,
2013-04-27 18:59:00,73.7,32.5,29.77,NNE,23,0.0,15.0,22,0.00,,---,0.00,VWS V14.00,2013-04-27 23:59:00,
2013-04-27 19:01:00,73.7,33.6,29.77,NE,56,3.0,9.0,23,0.00,,---,0.00,VWS V14.00,2013-04-28 00:01:00,
2013-04-27 19:02:00,73.7,33.6,29.77,NNE,17,0.0,9.0,23,0.00,,---,0.00,VWS V14.00,2013-04-28 00:02:00,
2013-04-27 19:04:00,73.5,33.5,29.77,NE,40,0.0,9.0,23,0.00,,---,0.00,VWS V14.00,2013-04-28 00:04:00,
2013-04-27 19:05:00,73.5,33.5,29.77,NE,38,0.0,9.0,23,0.00,,---,0.00,VWS V14.00,2013-04-28 00:05:00,
2013-04-27 19:07:00,73.5,33.5,29.77,North,356,0.0,9.0,23,0.00,,---,0.00,VWS V14.00,2013-04-28 00:07:00,
2013-04-27 19:09:00,73.7,33.6,29.77,North,0,0.0,9.0,23,0.00,,---,0.00,VWS V14.00,2013-04-28 00:09:00,
2013-04-27 19:10:00,73.7,33.6,29.77,NNE,18,0.0,9.0,23,0.00,,---,0.00,VWS V14.00,2013-04-28 00:10:00,
2013-04-27 19:11:00,73.7,33.6,29.77,NE,47,1.0,9.0,23,0.00,,---,0.00,VWS V14.00,2013-04-28 00:11:00,
2013-04-27 19:12:00,73.5,33.5,29.77,NE,47,0.0,9.0,23,0.00,,---,0.00,VWS V14.00,2013-04-28 00:12:00,
2013-04-27 19:15:00,73.5,33.5,29.77,NNE,32,0.0,10.0,23,0.00,,---,0.00,VWS V14.00,2013-04-28 00:15:00,
2013-04-27 19:16:00,73.5,33.5,29.77,NE,35,0.0,10.0,23,0.00,,---,0.00,VWS V14.00,2013-04-28 00:16:00,
2013-04-27 19:17:00,73.3,33.3,29.77,NE,40,0.0,10.0,23,0.00,,---,0.00,VWS V14.00,2013-04-28 00:17:00,
2013-04-27 19:18:00,73.3,33.3,29.77,NE,45,0.0,10.0,23,0.00,,---,0.00,VWS V14.00,2013-04-28 00:18:00,
2013-04-27 19:20:00,73.2,33.2,29.77,North,8,8.0,10.0,23,0.00,,---,0.00,VWS V14.00,2013-04-28 00:20:00,
2013-04-27 19:21:00,73.2,32.1,29.77,North,0,8.0,11.0,22,0.00,,---,0.00,VWS V14.00,2013-04-28 00:21:00,
2013-04-27 19:23:00,73.0,33.0,29.77,NNE,31,6.0,11.0,23,0.00,,---,0.00,VWS V14.00,2013-04-28 00:23:00,
2013-04-27 19:25:00,73.0,33.0,29.77,ENE,65,1.0,11.0,23,0.00,,---,0.00,VWS V14.00,2013-04-28 00:25:00,
2013-04-27 19:26:00,73.0,33.0,29.77,ENE,65,0.0,11.0,23,0.00,,---,0.00,VWS V14.00,2013-04-28 00:26:00,
2013-04-27 19:27:00,73.0,32.0,29.77,NE,35,0.0,11.0,22,0.00,,---,0.00,VWS V14.00,2013-04-28 00:27:00,
2013-04-27 19:28:00,72.8,32.9,29.77,NE,34,0.0,11.0,23,0.00,,---,0.00,VWS V14.00,2013-04-28 00:28:00,
2013-04-27 19:29:00,73.0,33.0,29.77,North,8,0.0,11.0,23,0.00,,---,0.00,VWS V14.00,2013-04-28 00:29:00,
2013-04-27 19:30:00,73.0,33.0,29.77,North,11,0.0,6.0,23,0.00,,---,0.00,VWS V14.00,2013-04-28 00:30:00,
2013-04-27 19:31:00,72.8,32.9,29.77,NNE,21,0.0,6.0,23,0.00,,---,0.00,VWS V14.00,2013-04-28 00:31:00,
2013-04-27 19:32:00,72.8,32.9,29.77,NNE,21,8.0,8.0,23,0.00,,---,0.00,VWS V14.00,2013-04-28 00:32:00,
2013-04-27 19:33:00,72.7,32.8,29.77,North,359,7.0,12.0,23,0.00,,---,0.00,VWS V14.00,2013-04-28 00:33:00,
2013-04-27 19:34:00,72.5,33.7,29.77,NNE,17,6.0,12.0,24,0.00,,---,0.00,VWS V14.00,2013-04-28 00:34:00,
2013-04-27 19:36:00,72.5,32.6,29.77,NNE,32,0.0,12.0,23,0.00,,---,0.00,VWS V14.00,2013-04-28 00:36:00,
2013-04-27 19:37:00,72.5,32.6,29.77,NNE,32,0.0,12.0,23,0.00,,---,0.00,VWS V14.00,2013-04-28 00:37:00,
2013-04-27 19:38:00,72.5,32.6,29.77,NE,34,0.0,12.0,23,0.00,,---,0.00,VWS V14.00,2013-04-28 00:38:00,
2013-04-27 19:39:00,72.3,32.5,29.77,NNE,20,0.0,12.0,23,0.00,,---,0.00,VWS V14.00,2013-04-28 00:39:00,
2013-04-27 19:42:00,72.1,32.3,29.77,NNE,28,0.0,12.0,23,0.00,,---,0.00,VWS V14.00,2013-04-28 00:42:00,
2013-04-27 19:43:00,72.1,32.3,29.77,NNE,28,0.0,12.0,23,0.00,,---,0.00,VWS V14.00,2013-04-28 00:43:00,
2013-04-27 19:44:00,72.1,32.3,29.78,NE,41,0.0,12.0,23,0.00,,---,0.00,VWS V14.00,2013-04-28 00:44:00,
2013-04-27 19:47:00,72.0,33.3,29.78,NNE,13,0.0,12.0,24,0.00,,---,0.00,VWS V14.00,2013-04-28 00:47:00,
2013-04-27 19:48:00,71.8,33.1,29.78,NNE,28,0.0,12.0,24,0.00,,---,0.00,VWS V14.00,2013-04-28 00:48:00,
2013-04-27 19:49:00,71.8,33.1,29.78,NNE,28,0.0,12.0,24,0.00,,---,0.00,VWS V14.00,2013-04-28 00:49:00,
2013-04-27 19:53:00,71.6,34.0,29.78,North,7,0.0,12.0,25,0.00,,---,0.00,VWS V14.00,2013-04-28 00:53:00,
2013-04-27 19:54:00,71.6,34.0,29.78,NNE,20,0.0,12.0,25,0.00,,---,0.00,VWS V14.00,2013-04-28 00:54:00,
2013-04-27 19:55:00,71.5,33.9,29.78,NNE,20,0.0,12.0,25,0.00,,---,0.00,VWS V14.00,2013-04-28 00:55:00,
2013-04-27 19:58:00,71.3,34.7,29.78,NNE,20,0.0,12.0,26,0.00,,---,0.00,VWS V14.00,2013-04-28 00:58:00,
2013-04-27 19:59:00,71.1,34.5,29.78,North,11,0.0,12.0,26,0.00,,---,0.00,VWS V14.00,2013-04-28 00:59:00,
2013-04-27 20:00:00,71.1,34.5,29.78,North,0,0.0,4.0,26,0.00,,---,0.00,VWS V14.00,2013-04-28 01:00:00,
2013-04-27 20:02:00,70.9,34.3,29.78,NNE,14,0.0,12.0,26,0.00,,---,0.00,VWS V14.00,2013-04-28 01:02:00,
2013-04-27 20:04:00,70.8,34.2,29.78,NNE,17,0.0,12.0,26,0.00,,---,0.00,VWS V14.00,2013-04-28 01:04:00,
2013-04-27 20:05:00,70.8,34.2,29.78,NNE,18,0.0,12.0,26,0.00,,---,0.00,VWS V14.00,2013-04-28 01:05:00,
2013-04-27 20:07:00,70.6,34.1,29.78,NNE,16,0.0,12.0,26,0.00,,---,0.00,VWS V14.00,2013-04-28 01:07:00,
2013-04-27 20:09:00,70.4,33.9,29.78,NE,38,0.0,12.0,26,0.00,,---,0.00,VWS V14.00,2013-04-28 01:09:00,
2013-04-27 20:10:00,70.3,33.8,29.78,NNE,18,0.0,12.0,26,0.00,,---,0.00,VWS V14.00,2013-04-28 01:10:00,
2013-04-27 20:11:00,70.3,33.8,29.78,North,1,0.0,12.0,26,0.00,,---,0.00,VWS V14.00,2013-04-28 01:11:00,
2013-04-27 20:14:00,70.1,34.6,29.76,NNE,17,0.0,12.0,27,0.00,,---,0.00,VWS V14.00,2013-04-28 01:14:00,
2013-04-27 20:16:00,69.9,34.4,29.76,NNE,25,0.0,12.0,27,0.00,,---,0.00,VWS V14.00,2013-04-28 01:16:00,
2013-04-27 20:17:00,69.9,34.4,29.76,NNE,16,0.0,12.0,27,0.00,,---,0.00,VWS V14.00,2013-04-28 01:17:00,
2013-04-27 20:21:00,69.8,34.3,29.76,North,6,0.0,12.0,27,0.00,,---,0.00,VWS V14.00,2013-04-28 01:21:00,
2013-04-27 20:22:00,69.6,34.2,29.76,North,7,0.0,12.0,27,0.00,,---,0.00,VWS V14.00,2013-04-28 01:22:00,
2013-04-27 20:26:00,69.4,33.1,29.76,North,0,10.0,12.0,26,0.00,,---,0.00,VWS V14.00,2013-04-28 01:26:00,
2013-04-27 20:27:00,69.4,34.0,29.76,NNE,14,7.0,12.0,27,0.00,,---,0.00,VWS V14.00,2013-04-28 01:27:00,
2013-04-27 20:28:00,69.4,34.0,29.76,NNE,25,5.0,12.0,27,0.00,,---,0.00,VWS V14.00,2013-04-28 01:28:00,
2013-04-27 20:32:00,69.3,34.8,29.76,North,8,0.0,4.0,28,0.00,,---,0.00,VWS V14.00,2013-04-28 01:32:00,
2013-04-27 20:33:00,69.3,34.8,29.76,North,8,0.0,4.0,28,0.00,,---,0.00,VWS V14.00,2013-04-28 01:33:00,
2013-04-27 20:34:00,69.1,34.7,29.76,North,0,0.0,4.0,28,0.00,,---,0.00,VWS V14.00,2013-04-28 01:34:00,
2013-04-27 20:38:00,68.9,34.5,29.76,NNE,30,0.0,12.0,28,0.00,,---,0.00,VWS V14.00,2013-04-28 01:38:00,
2013-04-27 20:40:00,68.9,34.5,29.76,North,10,0.0,12.0,28,0.00,,---,0.00,VWS V14.00,2013-04-28 01:40:00,
2013-04-27 20:43:00,68.8,34.4,29.76,North,0,0.0,12.0,28,0.00,,---,0.00,VWS V14.00,2013-04-28 01:43:00,
2013-04-27 20:44:00,68.8,34.4,29.76,NNE,16,0.0,12.0,28,0.00,,---,0.00,VWS V14.00,2013-04-28 01:44:00,
2013-04-27 20:45:00,68.8,34.4,29.76,NNE,23,0.0,12.0,28,0.00,,---,0.00,VWS V14.00,2013-04-28 01:45:00,
2013-04-27 20:49:00,68.8,34.4,29.76,NNE,23,0.0,12.0,28,0.00,,---,0.00,VWS V14.00,2013-04-28 01:49:00,
2013-04-27 20:50:00,68.6,34.2,29.76,NNE,23,0.0,12.0,28,0.00,,---,0.00,VWS V14.00,2013-04-28 01:50:00,
2013-04-27 20:51:00,68.6,34.2,29.76,NNE,23,0.0,12.0,28,0.00,,---,0.00,VWS V14.00,2013-04-28 01:51:00,
2013-04-27 20:55:00,68.4,33.1,29.76,North,8,0.0,12.0,27,0.00,,---,0.00,VWS V14.00,2013-04-28 01:55:00,
2013-04-27 20:56:00,68.4,33.1,29.76,North,10,0.0,12.0,27,0.00,,---,0.00,VWS V14.00,2013-04-28 01:56:00,
2013-04-27 20:57:00,68.3,33.1,29.76,North,10,0.0,12.0,27,0.00,,---,0.00,VWS V14.00,2013-04-28 01:57:00,
2013-04-27 21:00:00,68.3,33.1,29.77,NNE,13,0.0,0.0,27,0.00,,---,0.00,VWS V14.00,2013-04-28 02:00:00,
2013-04-27 21:01:00,68.1,32.9,29.77,NNE,13,0.0,0.0,27,0.00,,---,0.00,VWS V14.00,2013-04-28 02:01:00,
2013-04-27 21:02:00,68.1,32.9,29.77,NNE,13,0.0,0.0,27,0.00,,---,0.00,VWS V14.00,2013-04-28 02:02:00,
2013-04-27 21:05:00,67.9,33.6,29.77,NNE,13,0.0,0.0,28,0.00,,---,0.00,VWS V14.00,2013-04-28 02:05:00,
2013-04-27 21:07:00,67.8,33.5,29.77,NNE,14,0.0,0.0,28,0.00,,---,0.00,VWS V14.00,2013-04-28 02:07:00,
2013-04-27 21:08:00,67.8,33.5,29.77,NNE,14,0.0,0.0,28,0.00,,---,0.00,VWS V14.00,2013-04-28 02:08:00,
2013-04-27 21:10:00,67.8,33.5,29.77,NNE,17,0.0,0.0,28,0.00,,---,0.00,VWS V14.00,2013-04-28 02:10:00,
2013-04-27 21:12:00,67.6,33.4,29.77,NNE,18,0.0,0.0,28,0.00,,---,0.00,VWS V14.00,2013-04-28 02:12:00,
2013-04-27 21:13:00,67.6,33.4,29.77,NNE,18,0.0,0.0,28,0.00,,---,0.00,VWS V14.00,2013-04-28 02:13:00,
2013-04-27 21:15:00,67.4,33.2,29.74,NNE,18,0.0,0.0,28,0.00,,---,0.00,VWS V14.00,2013-04-28 02:15:00,
2013-04-27 21:16:00,67.4,33.2,29.74,NNE,18,0.0,0.0,28,0.00,,---,0.00,VWS V14.00,2013-04-28 02:16:00,
2013-04-27 21:17:00,67.4,33.2,29.74,NNE,18,0.0,0.0,28,0.00,,---,0.00,VWS V14.00,2013-04-28 02:17:00,
2013-04-27 21:18:00,67.4,33.2,29.74,NNE,18,0.0,0.0,28,0.00,,---,0.00,VWS V14.00,2013-04-28 02:18:00,
2013-04-27 21:19:00,67.4,33.2,29.74,NNE,18,0.0,0.0,28,0.00,,---,0.00,VWS V14.00,2013-04-28 02:19:00,
2013-04-27 21:22:00,67.3,34.0,29.74,NNE,24,0.0,0.0,29,0.00,,---,0.00,VWS V14.00,2013-04-28 02:22:00,
2013-04-27 21:25:00,67.3,34.0,29.74,NNE,24,0.0,0.0,29,0.00,,---,0.00,VWS V14.00,2013-04-28 02:25:00,
2013-04-27 21:29:00,67.1,33.8,29.75,NNE,24,0.0,0.0,29,0.00,,---,0.00,VWS V14.00,2013-04-28 02:29:00,
2013-04-27 21:30:00,66.9,33.6,29.75,NNE,24,0.0,0.0,29,0.00,,---,0.00,VWS V14.00,2013-04-28 02:30:00,
2013-04-27 21:31:00,66.8,34.4,29.75,NNE,24,0.0,0.0,30,0.00,,---,0.00,VWS V14.00,2013-04-28 02:31:00,
2013-04-27 21:32:00,66.8,33.5,29.75,NNE,24,0.0,0.0,29,0.00,,---,0.00,VWS V14.00,2013-04-28 02:32:00,
2013-04-27 21:35:00,66.3,34.0,29.75,NNE,24,0.0,0.0,30,0.00,,---,0.00,VWS V14.00,2013-04-28 02:35:00,
2013-04-27 21:36:00,66.1,33.8,29.75,NNE,24,0.0,0.0,30,0.00,,---,0.00,VWS V14.00,2013-04-28 02:36:00,
2013-04-27 21:37:00,66.0,33.7,29.75,NNE,24,0.0,0.0,30,0.00,,---,0.00,VWS V14.00,2013-04-28 02:37:00,
2013-04-27 21:38:00,65.8,33.5,29.75,NNE,24,0.0,0.0,30,0.00,,---,0.00,VWS V14.00,2013-04-28 02:38:00,
2013-04-27 21:40:00,65.5,33.3,29.75,NNE,24,0.0,0.0,30,0.00,,---,0.00,VWS V14.00,2013-04-28 02:40:00,
2013-04-27 21:42:00,65.3,33.9,29.75,NNE,24,0.0,0.0,31,0.00,,---,0.00,VWS V14.00,2013-04-28 02:42:00,
2013-04-27 21:43:00,65.2,33.8,29.76,NNE,24,0.0,0.0,31,0.00,,---,0.00,VWS V14.00,2013-04-28 02:43:00,
2013-04-27 21:45:00,65.0,33.7,29.76,NNE,24,0.0,0.0,31,0.00,,---,0.00,VWS V14.00,2013-04-28 02:45:00,
2013-04-27 21:46:00,64.8,33.5,29.76,NNE,24,0.0,0.0,31,0.00,,---,0.00,VWS V14.00,2013-04-28 02:46:00,